This is the latest recevied weather packets stored in our database for station/object KK4XZ. If no packets are shown the sender has not sent any weather packets the latest 10 day(s).
| Time | Temp. | Humidity | Pressure | Rain* | Wind** | Luminosity | Snow |
|---|---|---|---|---|---|---|---|
| 1777854920 | 15.56° C | 63% | 1017.7 hPa | 0 mm | - | - | - |
| 1777854336 | 15.56° C | 63% | 1017.7 hPa | 0 mm | - | - | - |
| 1777853731 | 15.56° C | 62% | 1017.6 hPa | 0 mm | - | - | - |
| 1777853126 | 15.56° C | 61% | 1017.4 hPa | 0 mm | - | - | - |
| 1777852521 | 16.11° C | 60% | 1017.4 hPa | 0 mm | - | - | - |
| 1777851936 | 16.11° C | 59% | 1017.3 hPa | 0 mm | - | - | - |
| 1777851331 | 16.11° C | 57% | 1017.1 hPa | 0 mm | - | - | - |
| 1777850724 | 16.67° C | 56% | 1017 hPa | 0 mm | - | - | - |
| 1777850119 | 16.67° C | 56% | 1017 hPa | 0 mm | - | - | - |
| 1777849535 | 16.67° C | 55% | 1016.8 hPa | 0 mm | - | - | - |
| 1777848930 | 16.67° C | 56% | 1016.8 hPa | 0 mm | - | - | - |
| 1777848325 | 17.22° C | 54% | 1016.9 hPa | 0 mm | - | - | - |
| 1777847720 | 17.22° C | 53% | 1016.9 hPa | 0 mm | - | - | - |
| 1777847136 | 17.22° C | 54% | 1017 hPa | 0 mm | - | - | - |
| 1777846531 | 17.78° C | 52% | 1016.9 hPa | 0 mm | - | - | - |
| 1777845926 | 17.78° C | 52% | 1016.9 hPa | 0 mm | - | - | - |
| 1777845322 | 17.78° C | 53% | 1016.8 hPa | 0 mm | - | - | - |
| 1777844717 | 17.78° C | 51% | 1016.9 hPa | 0 mm | - | - | - |
| 1777844132 | 18.33° C | 49% | 1016.8 hPa | 0 mm | - | - | - |
| 1777843527 | 19.44° C | 45% | 1016.8 hPa | 0 mm | - | - | - |
| 1777842922 | 20° C | 39% | 1016.7 hPa | 0 mm | - | - | - |
| 1777842317 | 20° C | 37% | 1016.6 hPa | 0 mm | - | - | - |
| 1777841733 | 20.56° C | 36% | 1016.6 hPa | 0 mm | - | - | - |
| 1777841128 | 20.56° C | 38% | 1016.5 hPa | 0 mm | - | - | - |
| 1777840522 | 20.56° C | 37% | 1016.6 hPa | 0 mm | - | - | - |
* Rain latest hour (hover to see other rain measurements)
** Current wind speed in m/s (hover to see current wind gust speed)